createdAt,value
2018-08-22T00:04:53.062Z,101751.70
2018-08-22T00:09:55.740Z,101752.02
2018-08-22T00:14:57.829Z,101761.87
2018-08-22T00:20:00.144Z,101762.67
2018-08-22T00:25:02.244Z,101763.90
2018-08-22T00:30:04.631Z,101760.09
2018-08-22T00:35:06.753Z,101761.80
2018-08-22T00:40:08.857Z,101770.30
2018-08-22T00:45:10.982Z,101764.28
2018-08-22T00:50:13.071Z,101759.56
2018-08-22T00:55:15.176Z,101768.05
2018-08-22T01:00:17.325Z,101759.46
2018-08-22T01:05:19.439Z,101761.14
2018-08-22T01:10:21.546Z,101739.13
2018-08-22T01:15:23.630Z,101757.62
2018-08-22T01:20:25.760Z,101757.49
2018-08-22T01:25:27.882Z,101756.11
2018-08-22T01:30:30.013Z,101754.37
2018-08-22T01:35:32.116Z,101749.20
2018-08-22T01:40:34.260Z,101747.92
2018-08-22T01:45:36.382Z,101744.91
2018-08-22T01:50:38.494Z,101738.45
2018-08-22T01:55:40.606Z,101733.65
2018-08-22T02:00:42.844Z,101739.33
2018-08-22T02:05:44.968Z,101729.94
2018-08-22T02:10:47.070Z,101725.72
2018-08-22T02:15:49.203Z,101726.13
2018-08-22T02:20:51.397Z,101727.80
2018-08-22T02:25:53.494Z,101715.73
2018-08-22T02:30:55.635Z,101714.39
2018-08-22T02:35:57.728Z,101710.13
2018-08-22T02:40:59.854Z,101705.39
2018-08-22T02:46:01.985Z,101703.17
2018-08-22T02:51:04.093Z,101706.58
2018-08-22T02:56:06.229Z,101700.12
2018-08-22T03:01:08.342Z,101700.91
2018-08-22T03:06:10.437Z,101700.41
2018-08-22T03:11:12.588Z,101691.42
2018-08-22T03:16:14.719Z,101699.14
2018-08-22T03:21:16.825Z,101693.93
2018-08-22T03:26:18.921Z,101693.93
2018-08-22T03:31:21.265Z,101685.41
2018-08-22T03:36:23.362Z,101686.21
2018-08-22T03:41:25.484Z,101685.75
2018-08-22T03:46:27.590Z,101680.63
2018-08-22T03:51:29.748Z,101681.01
2018-08-22T03:56:31.858Z,101673.66
2018-08-22T04:01:34.031Z,101669.12
2018-08-22T04:06:36.123Z,101664.48
2018-08-22T04:11:38.200Z,101659.84
2018-08-22T04:16:40.294Z,101650.88
2018-08-22T04:21:42.437Z,101662.44
2018-08-22T04:26:44.534Z,101661.25
2018-08-22T04:31:46.638Z,101657.28
2018-08-22T04:36:48.747Z,101656.62
2018-08-22T04:41:50.860Z,101657.88
2018-08-22T04:46:52.975Z,101656.62
2018-08-22T04:51:55.086Z,101657.50
2018-08-22T04:56:57.212Z,101653.23
2018-08-22T05:01:59.355Z,101649.88
2018-08-22T05:07:01.503Z,101647.92
2018-08-22T05:12:03.640Z,101641.34
2018-08-22T05:17:05.736Z,101647.55
2018-08-22T05:22:07.865Z,101643.10
2018-08-22T05:27:10.005Z,101638.36
2018-08-22T05:32:12.131Z,101637.07
2018-08-22T05:37:14.246Z,101641.33
2018-08-22T05:42:16.364Z,101641.50
2018-08-22T05:47:18.462Z,101638.00
2018-08-22T05:52:20.565Z,101638.58
2018-08-22T05:57:22.690Z,101639.47
2018-08-22T06:02:24.806Z,101633.47
2018-08-22T06:07:26.939Z,101628.90
2018-08-22T06:12:29.059Z,101627.31
2018-08-22T06:17:31.154Z,101623.67
2018-08-22T06:22:33.304Z,101629.98
2018-08-22T06:27:35.407Z,101623.80
2018-08-22T06:32:37.547Z,101628.47
2018-08-22T06:37:39.668Z,101623.04
2018-08-22T06:42:41.768Z,101622.31
2018-08-22T06:47:43.871Z,101622.02
2018-08-22T06:52:46.004Z,101625.06
2018-08-22T06:57:48.173Z,101624.61
2018-08-22T07:02:50.304Z,101620.91
2018-08-22T07:07:52.460Z,101621.05
2018-08-22T07:12:54.553Z,101614.69
2018-08-22T07:17:56.670Z,101616.42
2018-08-22T07:22:58.805Z,101615.05
2018-08-22T07:28:01.156Z,101607.51
2018-08-22T07:33:03.422Z,101596.52
2018-08-22T07:38:05.535Z,101603.88
2018-08-22T07:43:08.010Z,101598.81
2018-08-22T07:48:10.144Z,101589.81
2018-08-22T07:53:12.295Z,101587.75
2018-08-22T07:58:14.474Z,101592.94
2018-08-22T08:03:16.640Z,101597.72
2018-08-22T08:08:18.775Z,101589.62
2018-08-22T08:13:26.974Z,101589.20
2018-08-22T08:18:29.106Z,101583.25
2018-08-22T08:23:31.258Z,101574.68
2018-08-22T08:28:33.327Z,101574.70
2018-08-22T08:33:35.535Z,101576.01
2018-08-22T08:38:37.715Z,101566.61
2018-08-22T08:43:39.854Z,101560.62
2018-08-22T08:48:41.963Z,101560.64
2018-08-22T08:53:44.118Z,101560.20
2018-08-22T08:58:46.234Z,101554.20
2018-08-22T09:03:48.410Z,101542.18
2018-08-22T09:08:50.550Z,101537.88
2018-08-22T09:13:55.693Z,101528.43
2018-08-22T09:18:57.823Z,101524.51
2018-08-22T09:23:59.996Z,101522.78
2018-08-22T09:29:02.308Z,101518.92
2018-08-22T09:34:04.618Z,101514.64
2018-08-22T09:39:09.633Z,101515.02
2018-08-22T09:44:11.758Z,101506.36
2018-08-22T09:49:13.903Z,101496.83
2018-08-22T09:54:16.053Z,101499.78
2018-08-22T09:59:18.163Z,101501.05
2018-08-22T10:04:20.334Z,101495.05
2018-08-22T10:09:23.606Z,101483.81
2018-08-22T10:14:25.754Z,101479.51
2018-08-22T10:19:27.863Z,101473.43
2018-08-22T10:24:30.036Z,101466.39
2018-08-22T10:29:32.335Z,101459.84
2018-08-22T10:34:34.504Z,101454.52
2018-08-22T10:39:36.769Z,101444.11
2018-08-22T10:44:38.856Z,101440.45
2018-08-22T10:49:40.990Z,101433.29
2018-08-22T10:54:43.161Z,101437.84
2018-08-22T10:59:45.282Z,101419.16
2018-08-22T11:04:47.418Z,101426.96
2018-08-22T11:09:49.569Z,101426.25
2018-08-22T11:14:51.668Z,101421.67
2018-08-22T11:19:53.866Z,101424.20
2018-08-22T11:25:07.583Z,101406.82
2018-08-22T11:30:21.188Z,101415.52
2018-08-22T11:35:22.413Z,101401.62
2018-08-22T11:40:24.567Z,101410.19
2018-08-22T11:45:26.775Z,101085.55
2018-08-22T11:50:29.015Z,101401.93
2018-08-22T11:55:31.174Z,101390.81
2018-08-22T12:00:33.364Z,101388.36
2018-08-22T12:05:35.564Z,101385.57
2018-08-22T12:10:37.808Z,101386.45
2018-08-22T12:15:39.917Z,101378.77
2018-08-22T12:20:42.062Z,101387.55
2018-08-22T12:25:44.532Z,101376.83
2018-08-22T12:30:46.689Z,101368.48
2018-08-22T12:35:49.088Z,101359.41
2018-08-22T12:40:51.227Z,101351.84
2018-08-22T12:45:53.588Z,101341.38
2018-08-22T12:50:55.722Z,101343.77
2018-08-22T12:55:57.932Z,101346.37
2018-08-22T13:01:00.066Z,101335.59
2018-08-22T13:06:02.221Z,101326.52
2018-08-22T13:11:04.481Z,101325.67
2018-08-22T13:16:06.620Z,101323.92
2018-08-22T13:21:08.751Z,101313.98
2018-08-22T13:26:10.922Z,101302.11
2018-08-22T13:31:13.102Z,101304.83
2018-08-22T13:36:15.267Z,101289.39
2018-08-22T13:41:17.379Z,101296.47
2018-08-22T13:46:19.515Z,101289.20
2018-08-22T13:51:21.690Z,101282.25
2018-08-22T13:56:23.843Z,101278.86
2018-08-22T14:01:26.066Z,101275.34
2018-08-22T14:06:28.215Z,101271.27
2018-08-22T14:11:30.384Z,101269.16
2018-08-22T14:16:32.558Z,101259.43
2018-08-22T14:21:34.714Z,101256.89
2018-08-22T14:26:36.853Z,101256.57
2018-08-22T14:31:39.034Z,101255.61
2018-08-22T14:36:41.185Z,101253.52
2018-08-22T14:41:43.350Z,101254.30
2018-08-22T14:46:57.988Z,101249.12
2018-08-22T14:52:08.646Z,101243.41
2018-08-22T14:57:16.402Z,101240.87
2018-08-22T15:02:26.161Z,101240.05
2018-08-22T15:07:32.170Z,101221.46
2018-08-22T15:18:21.798Z,101225.80
2018-08-22T15:23:41.723Z,101211.00
2018-08-22T15:29:20.635Z,101201.29
2018-08-22T15:34:50.596Z,101206.31
2018-08-22T15:39:53.448Z,101204.39
2018-08-22T15:44:55.601Z,101195.17
2018-08-22T15:49:57.720Z,101197.81
2018-08-22T15:55:15.282Z,101188.12
2018-08-22T16:00:44.169Z,101184.43
2018-08-22T16:05:47.203Z,101174.89
2018-08-22T16:10:49.495Z,101172.47
2018-08-22T16:15:52.868Z,101169.16
2018-08-22T16:20:57.159Z,101167.62
2018-08-22T16:26:00.509Z,101161.18
2018-08-22T16:31:02.717Z,101154.74
2018-08-22T16:36:04.864Z,101149.99
2018-08-22T16:41:07.008Z,101154.12
2018-08-22T16:46:11.996Z,101152.42
2018-08-22T16:51:14.169Z,101147.10
2018-08-22T16:56:16.333Z,101154.95
2018-08-22T17:01:18.571Z,101148.69
2018-08-22T17:06:20.743Z,101142.20
2018-08-22T17:11:22.928Z,101147.40
2018-08-22T17:16:25.420Z,101147.59
2018-08-22T17:21:27.619Z,101141.89
2018-08-22T17:26:29.818Z,101140.89
2018-08-22T17:31:32.081Z,101137.84
2018-08-22T17:36:34.259Z,101131.59
2018-08-22T17:41:36.469Z,101136.44
2018-08-22T17:46:40.765Z,101136.98
2018-08-22T17:52:04.371Z,101135.33
2018-08-22T17:57:12.386Z,101131.88
2018-08-22T18:02:14.544Z,101131.33
2018-08-22T18:07:17.183Z,101131.61
2018-08-22T18:12:22.875Z,101125.91
2018-08-22T18:17:25.042Z,101114.97
2018-08-22T18:22:29.163Z,101115.66
2018-08-22T18:27:31.374Z,100711.54
2018-08-22T18:32:33.582Z,101123.91
2018-08-22T18:37:35.940Z,101125.42
2018-08-22T18:42:38.518Z,101126.85
2018-08-22T18:47:40.727Z,101126.59
2018-08-22T18:52:46.961Z,101130.22
2018-08-22T18:57:49.225Z,101134.63
2018-08-22T19:02:53.192Z,101127.38
2018-08-22T19:08:02.713Z,101129.69
2018-08-22T19:13:10.628Z,101125.94
2018-08-22T19:18:12.785Z,101126.02
2018-08-22T19:23:20.014Z,101123.12
2018-08-22T19:28:28.042Z,101124.41
2018-08-22T19:33:36.848Z,101134.72
2018-08-22T19:38:45.381Z,101134.80
2018-08-22T19:43:57.537Z,101130.17
2018-08-22T19:49:05.913Z,101133.23
2018-08-22T19:54:17.600Z,101130.80
2018-08-22T19:59:21.441Z,101126.48
2018-08-22T20:04:25.150Z,101133.45
2018-08-22T20:09:30.018Z,101130.91
2018-08-22T20:14:43.757Z,101129.27
2018-08-22T20:19:53.485Z,101126.75
2018-08-22T20:25:03.960Z,101123.02
2018-08-22T20:30:15.123Z,101126.44
2018-08-22T20:35:31.170Z,101126.58
2018-08-22T20:40:39.213Z,101122.34
2018-08-22T20:45:48.194Z,101118.06
2018-08-22T20:50:55.098Z,101124.13
2018-08-22T20:56:03.028Z,101126.98
2018-08-22T21:01:10.396Z,101130.09
2018-08-22T21:06:17.203Z,101129.30
2018-08-22T21:11:26.113Z,101124.38
2018-08-22T21:16:31.077Z,101122.59
2018-08-22T21:21:34.945Z,101122.72
2018-08-22T21:26:42.093Z,101130.16
2018-08-22T21:31:46.039Z,101128.98
2018-08-22T21:36:50.263Z,101137.64
2018-08-22T21:41:55.615Z,101141.19
2018-08-22T21:47:05.705Z,101144.72
2018-08-22T21:52:08.202Z,101143.50
2018-08-22T21:57:10.373Z,101144.81
2018-08-22T22:02:12.530Z,101151.32
2018-08-22T22:07:16.299Z,101144.95
2018-08-22T22:12:25.357Z,101139.77
2018-08-22T22:17:28.887Z,101142.86
2018-08-22T22:22:31.670Z,101140.28
2018-08-22T22:27:35.424Z,101136.45
2018-08-22T22:32:38.146Z,101142.04
2018-08-22T22:37:44.372Z,101142.95
2018-08-22T22:42:50.381Z,101146.89
2018-08-22T22:47:56.753Z,101139.58
2018-08-22T22:53:05.416Z,101137.02
2018-08-22T22:58:11.951Z,101131.95
2018-08-22T23:03:18.560Z,101130.69
2018-08-22T23:08:26.439Z,101123.86
2018-08-22T23:13:33.233Z,101118.70
2018-08-22T23:18:39.275Z,101110.98
2018-08-22T23:23:46.222Z,101114.44
2018-08-22T23:28:52.623Z,101118.02
2018-08-22T23:33:57.880Z,101107.27
2018-08-22T23:39:00.322Z,101106.86
2018-08-22T23:44:02.495Z,101111.17
2018-08-22T23:49:07.552Z,101107.78
2018-08-22T23:54:13.982Z,101105.23
2018-08-22T23:59:21.629Z,101101.83
